Terminal Aerodrome Forecast
Issued by NWS Lake Charles, LA

Home | Current Version | Previous Version | Text Only | Print | Product List | Glossary On
Versions: 1 2 3 4 5 6 7 8 9 10
000
FTUS44 KLCH 281700
TAFAEX
TAF
KAEX 281720Z 2818/2918 34008KT P6SM -SHRA OVC006
      TEMPO 2819/2823 5SM SHRA OVC004
     FM290200 01004KT 4SM BR OVC003
     FM291000 03004KT 1SM BR OVC002
     FM291500 VRB03KT 2SM BR OVC004=

USA.gov is the U.S. government's official web portal to all federal, state and local government web resources and services.